Terminal Aerodrome Forecast
Issued by NWS Mt. Holly, NJ

Home | Current Version | Previous Version | Text Only | Print | Product List | Glossary On
Versions: 1 2 3 4 5 6 7 8 9 10 11 12 13 14 15
000
FTUS41 KPHI 260520
TAFTTN
TAF
KTTN 260520Z 2606/2706 35005KT P6SM OVC200
     FM260800 01005KT P6SM OVC100
     FM261300 04007KT P6SM BKN200
     FM261800 36007KT P6SM SCT050 BKN250
     FM262200 32005KT P6SM FEW050 SCT250=

USA.gov is the U.S. government's official web portal to all federal, state and local government web resources and services.